Time;durP1;ratioP1;P1;durP2;ratioP2;P2;SDS_P1;SDS_P2;PMS_P1;PMS_P2;Temp;Humidity;BMP_temperature;BMP_pressure;BME280_temperature;BME280_humidity;BME280_pressure;Samples;Min_cycle;Max_cycle;Signal;HPM_P1;HPM_P2
2021/08/20 00:00:24;;;;;;;;;;;19.90;73.00;;;;;;20638835;28;19922;-73
2021/08/20 00:10:25;;;;;;;;;;;20.00;73.00;;;;;;20658556;28;20352;-73
2021/08/20 00:20:26;;;;;;;;;;;20.00;72.90;;;;;;20657270;28;20369;-73
2021/08/20 00:30:27;;;;;;;;;;;20.00;72.90;;;;;;20673353;28;19922;-73
2021/08/20 00:40:28;;;;;;;;;;;20.00;72.80;;;;;;20656036;28;20320;-74
2021/08/20 00:50:29;;;;;;;;;;;19.90;72.70;;;;;;20655251;28;19972;-73
2021/08/20 01:00:30;;;;;;;;;;;19.80;72.60;;;;;;20655843;28;19928;-73
2021/08/20 01:10:30;;;;;;;;;;;19.90;72.60;;;;;;20653144;28;19922;-73
2021/08/20 01:20:31;;;;;;;;;;;20.00;72.70;;;;;;20652934;28;20287;-73
2021/08/20 01:30:33;;;;;;;;;;;19.90;72.60;;;;;;20638446;28;19957;-73
2021/08/20 01:40:34;;;;;;;;;;;19.90;72.60;;;;;;20635502;28;20004;-74
2021/08/20 01:50:37;;;;;;;;;;;19.90;72.50;;;;;;20652056;28;19929;-74
2021/08/20 02:00:41;;;;;;;;;;;19.90;72.50;;;;;;20650132;28;19913;-74
2021/08/20 02:10:42;;;;;;;;;;;19.90;72.50;;;;;;20650204;28;19914;-75
2021/08/20 02:20:43;;;;;;;;;;;19.90;72.50;;;;;;20631169;28;19920;-74
2021/08/20 02:30:50;;;;;;;;;;;19.90;72.50;;;;;;20648207;28;19921;-74
2021/08/20 02:40:51;;;;;;;;;;;19.90;72.50;;;;;;20663378;28;19922;-75
2021/08/20 02:50:52;;;;;;;;;;;19.90;72.50;;;;;;20630064;28;20352;-75
2021/08/20 03:00:54;;;;;;;;;;;19.90;72.50;;;;;;20645242;28;19917;-75
2021/08/20 03:10:55;;;;;;;;;;;19.90;72.60;;;;;;20628848;28;19922;-75
2021/08/20 03:20:56;;;;;;;;;;;19.90;72.60;;;;;;20627860;28;19964;-75
2021/08/20 03:31:08;;;;;;;;;;;19.90;72.60;;;;;;20644693;28;19913;-75
2021/08/20 03:41:11;;;;;;;;;;;19.90;72.70;;;;;;20629025;28;19914;-75
2021/08/20 03:51:31;;;;;;;;;;;19.90;72.70;;;;;;20632342;28;19936;-75
2021/08/20 04:01:34;;;;;;;;;;;19.90;72.50;;;;;;20626816;28;19917;-75
2021/08/20 04:11:36;;;;;;;;;;;19.80;72.40;;;;;;20658290;28;19918;-75
2021/08/20 04:21:44;;;;;;;;;;;19.90;72.40;;;;;;20627033;28;19918;-75
2021/08/20 04:31:46;;;;;;;;;;;19.80;72.20;;;;;;20625859;28;19913;-75
2021/08/20 04:42:16;;;;;;;;;;;19.80;72.10;;;;;;20655142;28;20374;-75
2021/08/20 04:52:41;;;;;;;;;;;19.80;72.10;;;;;;20659718;28;19917;-75
2021/08/20 05:02:56;;;;;;;;;;;19.80;72.00;;;;;;20656354;28;19914;-75
2021/08/20 05:12:57;;;;;;;;;;;19.80;72.00;;;;;;20670027;28;20372;-74
2021/08/20 05:22:57;;;;;;;;;;;19.80;72.00;;;;;;20669491;28;19936;-77
2021/08/20 05:32:58;;;;;;;;;;;19.80;72.00;;;;;;20668447;28;19913;-75
2021/08/20 05:42:59;;;;;;;;;;;20.00;72.00;;;;;;20651490;28;19914;-75
2021/08/20 05:53:00;;;;;;;;;;;19.80;71.90;;;;;;20650322;28;19925;-75
2021/08/20 06:03:03;;;;;;;;;;;19.80;71.80;;;;;;20649909;28;20289;-78
2021/08/20 06:13:04;;;;;;;;;;;19.80;71.80;;;;;;20655645;28;19917;-82
2021/08/20 06:23:05;;;;;;;;;;;19.80;71.80;;;;;;20712180;28;19917;-80
2021/08/20 06:33:05;;;;;;;;;;;19.80;71.90;;;;;;20728162;28;19913;-81
2021/08/20 06:43:06;;;;;;;;;;;19.80;71.90;;;;;;20695593;28;19920;-82
2021/08/20 06:53:06;;;;;;;;;;;19.80;71.90;;;;;;20710373;28;19913;-77
2021/08/20 07:03:08;;;;;;;;;;;19.80;71.80;;;;;;20725802;28;19938;-80
2021/08/20 07:13:09;;;;;;;;;;;19.80;71.90;;;;;;20709963;28;19913;-78
2021/08/20 07:23:09;;;;;;;;;;;19.80;71.90;;;;;;20709635;28;20073;-78
2021/08/20 07:33:09;;;;;;;;;;;19.80;71.90;;;;;;20708748;28;19917;-77
2021/08/20 07:43:11;;;;;;;;;;;19.80;71.90;;;;;;20706624;28;19965;-80
2021/08/20 07:53:12;;;;;;;;;;;19.80;72.00;;;;;;20779622;28;19959;-80
2021/08/20 08:03:13;;;;;;;;;;;19.80;72.20;;;;;;20705554;28;19992;-83
2021/08/20 08:13:13;;;;;;;;;;;19.80;72.30;;;;;;20707126;28;19917;-78
2021/08/20 08:23:14;;;;;;;;;;;19.80;72.40;;;;;;20722109;28;19920;-85
2021/08/20 08:33:15;;;;;;;;;;;19.80;72.50;;;;;;20726171;28;19914;-78
2021/08/20 08:43:15;;;;;;;;;;;19.80;72.50;;;;;;20723344;28;19921;-82
2021/08/20 08:53:16;;;;;;;;;;;19.80;73.20;;;;;;20735971;28;19913;-79
2021/08/20 09:03:27;;;;;;;;;;;19.70;73.70;;;;;;20690278;28;19940;-81
2021/08/20 09:13:28;;;;;;;;;;;19.70;74.20;;;;;;20757180;28;19913;-80
2021/08/20 09:23:28;;;;;;;;;;;19.70;74.30;;;;;;20649660;28;19925;-79
2021/08/20 09:33:33;;;;;;;;;;;19.80;74.30;;;;;;20653422;28;20281;-77
2021/08/20 09:43:36;;;;;;;;;;;19.80;74.10;;;;;;20717336;28;19913;-82
2021/08/20 09:53:36;;;;;;;;;;;19.80;74.00;;;;;;20707267;28;19921;-77
2021/08/20 10:03:37;;;;;;;;;;;19.80;74.50;;;;;;21197436;22;19921;-81
2021/08/20 10:13:38;;;;;;;;;;;19.80;73.60;;;;;;20828610;28;19913;-80
2021/08/20 10:23:39;;;;;;;;;;;19.80;73.50;;;;;;20811126;28;19983;-77
2021/08/20 10:33:39;;;;;;;;;;;19.90;73.50;;;;;;20810958;28;19937;-79
2021/08/20 10:43:56;;;;;;;;;;;19.90;73.40;;;;;;20791482;28;19921;-78
2021/08/20 10:53:57;;;;;;;;;;;19.90;73.30;;;;;;20816829;28;19915;-78
2021/08/20 11:03:59;;;;;;;;;;;19.90;73.10;;;;;;20824206;28;19917;-76
2021/08/20 11:14:18;;;;;;;;;;;20.00;72.70;;;;;;20826756;28;19948;-76
2021/08/20 11:24:19;;;;;;;;;;;19.90;72.30;;;;;;20841166;28;20008;-77
2021/08/20 11:34:20;;;;;;;;;;;19.90;72.00;;;;;;20870098;28;19952;-76
2021/08/20 11:44:24;;;;;;;;;;;20.00;71.70;;;;;;20870938;28;20458;-74
2021/08/20 11:54:29;;;;;;;;;;;20.00;71.50;;;;;;20863197;28;19912;-74
2021/08/20 12:04:30;;;;;;;;;;;20.00;71.40;;;;;;20881178;28;20008;-77
2021/08/20 12:14:32;;;;;;;;;;;20.00;71.10;;;;;;20903308;28;19999;-75
2021/08/20 12:24:34;;;;;;;;;;;20.00;70.90;;;;;;20869659;28;20374;-73
2021/08/20 12:34:35;;;;;;;;;;;20.10;70.90;;;;;;20885089;28;19920;-73
2021/08/20 12:44:55;;;;;;;;;;;20.10;70.70;;;;;;20893287;28;19956;-74
2021/08/20 12:55:24;;;;;;;;;;;20.20;70.80;;;;;;20901625;28;20003;-79
2021/08/20 13:05:24;;;;;;;;;;;20.20;70.50;;;;;;20898048;28;20405;-79
2021/08/20 13:15:25;;;;;;;;;;;20.20;70.40;;;;;;20883505;28;19909;-79
2021/08/20 13:25:26;;;;;;;;;;;20.20;70.30;;;;;;20900680;28;19916;-80
2021/08/20 13:35:26;;;;;;;;;;;20.30;69.90;;;;;;20865862;28;19963;-79
2021/08/20 13:45:27;;;;;;;;;;;20.30;70.00;;;;;;20865707;28;19921;-77
2021/08/20 13:55:27;;;;;;;;;;;20.40;69.20;;;;;;20880154;28;19909;-76
2021/08/20 14:05:28;;;;;;;;;;;20.40;69.00;;;;;;20863205;28;19974;-77
2021/08/20 14:15:28;;;;;;;;;;;20.50;68.80;;;;;;20878253;28;19908;-73
2021/08/20 14:25:29;;;;;;;;;;;20.50;68.90;;;;;;20893020;28;19916;-76
2021/08/20 14:35:30;;;;;;;;;;;20.50;68.80;;;;;;20910606;28;20436;-78
2021/08/20 14:45:30;;;;;;;;;;;20.50;68.70;;;;;;20892018;28;19921;-76
2021/08/20 14:55:31;;;;;;;;;;;20.50;68.70;;;;;;20890764;28;19920;-72
2021/08/20 15:05:32;;;;;;;;;;;20.50;68.80;;;;;;20857175;28;19921;-77
2021/08/20 15:15:33;;;;;;;;;;;20.50;68.90;;;;;;20872071;28;19955;-76
2021/08/20 15:25:33;;;;;;;;;;;20.50;69.00;;;;;;20887990;28;20003;-72
2021/08/20 15:35:34;;;;;;;;;;;20.40;69.00;;;;;;20884605;28;20000;-77
2021/08/20 15:45:34;;;;;;;;;;;20.40;69.10;;;;;;20855721;28;19983;-74
2021/08/20 15:55:35;;;;;;;;;;;20.40;69.20;;;;;;20870692;28;19920;-74
2021/08/20 16:05:36;;;;;;;;;;;20.40;69.30;;;;;;20860388;28;19916;-70
2021/08/20 16:15:36;;;;;;;;;;;20.40;69.40;;;;;;20787642;28;19909;-73
2021/08/20 16:25:37;;;;;;;;;;;20.40;69.50;;;;;;20803002;28;19917;-68
2021/08/20 16:35:38;;;;;;;;;;;20.40;69.60;;;;;;20808505;28;19921;-75
2021/08/20 16:45:39;;;;;;;;;;;20.40;69.70;;;;;;20871395;28;19920;-77
2021/08/20 16:55:39;;;;;;;;;;;20.40;69.80;;;;;;20882933;28;20388;-76
2021/08/20 17:05:40;;;;;;;;;;;20.40;69.80;;;;;;20915568;28;19927;-75
2021/08/20 17:15:41;;;;;;;;;;;20.40;69.90;;;;;;20895853;28;19912;-74
2021/08/20 17:25:41;;;;;;;;;;;20.40;69.90;;;;;;20897517;28;19974;-75
2021/08/20 17:35:42;;;;;;;;;;;20.40;70.00;;;;;;20897331;28;20324;-73
2021/08/20 17:45:42;;;;;;;;;;;20.50;70.00;;;;;;20863516;28;20008;-75
2021/08/20 17:55:43;;;;;;;;;;;20.50;70.00;;;;;;20795690;28;19909;-76
2021/08/20 18:05:44;;;;;;;;;;;20.50;70.10;;;;;;20829174;28;20357;-78
2021/08/20 18:15:45;;;;;;;;;;;20.40;70.20;;;;;;20811324;28;19913;-74
2021/08/20 18:25:45;;;;;;;;;;;20.40;70.50;;;;;;20831165;28;19927;-76
2021/08/20 18:35:46;;;;;;;;;;;20.40;70.70;;;;;;20849117;28;20003;-73
2021/08/20 18:45:47;;;;;;;;;;;20.50;70.80;;;;;;20831377;28;20016;-78
2021/08/20 18:55:49;;;;;;;;;;;20.40;70.90;;;;;;20858956;28;19955;-76
2021/08/20 19:05:49;;;;;;;;;;;20.40;70.90;;;;;;20833673;28;19952;-75
2021/08/20 19:15:50;;;;;;;;;;;20.50;71.00;;;;;;20829546;28;19955;-76
2021/08/20 19:25:52;;;;;;;;;;;20.40;70.90;;;;;;20817219;28;19956;-82
2021/08/20 19:35:52;;;;;;;;;;;20.40;70.80;;;;;;20835633;28;19912;-85
2021/08/20 19:45:55;;;;;;;;;;;20.40;70.80;;;;;;20839702;28;19924;-83
2021/08/20 19:55:57;;;;;;;;;;;20.40;70.80;;;;;;20848723;28;19909;-86
2021/08/20 20:06:00;;;;;;;;;;;20.40;70.90;;;;;;20815141;28;19923;-83
2021/08/20 20:16:01;;;;;;;;;;;20.30;70.90;;;;;;20855167;28;20393;-82
2021/08/20 20:26:01;;;;;;;;;;;20.30;70.90;;;;;;20889115;28;20011;-82
2021/08/20 20:36:02;;;;;;;;;;;20.30;71.00;;;;;;20887756;28;19919;-82
2021/08/20 20:46:02;;;;;;;;;;;20.30;71.10;;;;;;20885039;28;19963;-82
2021/08/20 20:56:04;;;;;;;;;;;20.30;71.20;;;;;;20897945;28;19970;-83
2021/08/20 21:06:05;;;;;;;;;;;20.30;71.20;;;;;;20900530;28;20322;-80
2021/08/20 21:16:06;;;;;;;;;;;20.10;71.20;;;;;;20901471;28;19955;-83
2021/08/20 21:26:07;;;;;;;;;;;20.30;71.40;;;;;;20899242;28;19916;-83
2021/08/20 21:36:08;;;;;;;;;;;20.30;71.50;;;;;;20898310;28;19938;-83
2021/08/20 21:46:09;;;;;;;;;;;20.20;71.50;;;;;;20890375;28;20393;-83
2021/08/20 21:56:09;;;;;;;;;;;20.20;71.60;;;;;;20881675;28;19919;-82
2021/08/20 22:06:10;;;;;;;;;;;20.20;71.70;;;;;;20880490;28;19924;-83
2021/08/20 22:16:10;;;;;;;;;;;20.40;71.90;;;;;;20895808;28;19912;-83
2021/08/20 22:26:11;;;;;;;;;;;20.20;71.70;;;;;;20893726;28;19920;-84
2021/08/20 22:36:12;;;;;;;;;;;20.20;71.80;;;;;;20895009;28;20386;-83
2021/08/20 22:46:14;;;;;;;;;;;20.20;71.80;;;;;;20877810;28;19919;-83
2021/08/20 22:56:14;;;;;;;;;;;20.20;72.50;;;;;;20893801;28;19917;-83
2021/08/20 23:06:16;;;;;;;;;;;20.20;71.80;;;;;;20877078;28;19916;-82
2021/08/20 23:16:17;;;;;;;;;;;20.20;71.90;;;;;;20893569;28;19915;-83
2021/08/20 23:26:17;;;;;;;;;;;20.20;71.90;;;;;;20875666;28;19920;-84
2021/08/20 23:36:18;;;;;;;;;;;20.20;71.90;;;;;;20891407;28;19935;-83
2021/08/20 23:46:18;;;;;;;;;;;20.20;71.90;;;;;;20894924;28;19948;-83
2021/08/20 23:56:19;;;;;;;;;;;20.20;71.90;;;;;;20918843;28;19912;-84
